createdAt,value
2022-08-16T00:02:13.231Z,94.36
2022-08-16T00:05:16.008Z,94.06
2022-08-16T00:08:36.112Z,93.69
2022-08-16T00:11:40.259Z,93.76
2022-08-16T00:14:42.095Z,93.63
2022-08-16T00:17:56.107Z,93.63
2022-08-16T00:20:59.219Z,93.21
2022-08-16T00:24:04.821Z,93.05
2022-08-16T00:27:06.947Z,93.46
2022-08-16T00:30:19.542Z,93.67
2022-08-16T00:33:30.791Z,93.69
2022-08-16T00:36:32.747Z,93.63
2022-08-16T00:39:34.550Z,93.60
2022-08-16T00:42:36.405Z,93.71
2022-08-16T00:45:57.936Z,93.62
2022-08-16T00:49:03.252Z,94.46
2022-08-16T00:52:05.563Z,94.60
2022-08-16T00:55:28.266Z,94.17
2022-08-16T00:58:44.433Z,93.64
2022-08-16T01:01:46.719Z,93.10
2022-08-16T01:05:09.609Z,93.07
2022-08-16T01:08:35.319Z,93.01
2022-08-16T01:11:36.838Z,93.90
2022-08-16T01:14:58.628Z,95.04
2022-08-16T01:18:01.437Z,95.76
2022-08-16T01:21:22.131Z,95.05
2022-08-16T01:24:52.574Z,95.43
2022-08-16T01:27:59.042Z,96.07
2022-08-16T01:31:01.907Z,95.34
2022-08-16T01:34:04.397Z,94.77
2022-08-16T01:37:11.311Z,94.10
2022-08-16T01:40:15.434Z,94.21
2022-08-16T01:43:17.849Z,93.86
2022-08-16T01:46:43.307Z,93.01
2022-08-16T01:50:41.939Z,93.32
2022-08-16T01:53:13.610Z,93.41
2022-08-16T01:56:34.774Z,93.96
2022-08-16T01:59:38.074Z,95.17
2022-08-16T02:02:43.467Z,94.81
2022-08-16T02:05:51.774Z,94.80
2022-08-16T02:08:55.193Z,94.56
2022-08-16T02:11:59.470Z,94.79
2022-08-16T02:15:26.111Z,95.16
2022-08-16T02:18:30.304Z,95.38
2022-08-16T02:21:34.122Z,95.37
2022-08-16T02:24:41.295Z,95.17
2022-08-16T02:27:50.757Z,94.26
2022-08-16T02:30:55.139Z,93.94
2022-08-16T02:33:57.083Z,94.02
2022-08-16T02:37:08.743Z,93.67
2022-08-16T02:40:13.277Z,93.76
2022-08-16T02:43:18.453Z,93.38
2022-08-16T02:46:20.469Z,93.54
2022-08-16T02:49:59.312Z,92.83
2022-08-16T02:52:55.108Z,92.80
2022-08-16T02:55:59.122Z,92.46
2022-08-16T02:59:02.500Z,93.00
2022-08-16T03:02:13.738Z,93.10
2022-08-16T03:05:18.793Z,93.52
2022-08-16T03:08:50.809Z,93.73
2022-08-16T03:11:45.766Z,94.63
2022-08-16T03:14:48.449Z,95.45
2022-08-16T03:17:54.305Z,96.02
2022-08-16T03:20:59.779Z,96.42
2022-08-16T03:24:01.987Z,96.18
2022-08-16T03:27:04.200Z,96.75
2022-08-16T03:30:17.748Z,96.46
2022-08-16T03:33:25.086Z,96.24
2022-08-16T03:36:32.910Z,95.76
2022-08-16T03:39:39.594Z,95.75
2022-08-16T03:43:19.176Z,96.06
2022-08-16T03:46:07.209Z,95.89
2022-08-16T03:49:13.653Z,95.11
2022-08-16T03:52:18.327Z,95.75
2022-08-16T03:55:22.374Z,96.34
2022-08-16T03:58:31.300Z,96.15
2022-08-16T04:01:35.582Z,96.13
2022-08-16T04:04:37.691Z,96.26
2022-08-16T04:07:41.326Z,95.70
2022-08-16T04:10:43.157Z,95.64
2022-08-16T04:13:59.426Z,95.72
2022-08-16T04:17:15.532Z,94.74
2022-08-16T04:20:23.677Z,94.92
2022-08-16T04:23:32.771Z,94.83
2022-08-16T04:26:35.199Z,94.44
2022-08-16T04:29:43.776Z,94.88
2022-08-16T04:32:49.977Z,95.61
2022-08-16T04:35:54.881Z,95.66
2022-08-16T04:38:58.419Z,95.47
2022-08-16T04:42:01.890Z,96.28
2022-08-16T04:45:14.795Z,97.03
2022-08-16T04:48:22.051Z,97.45
2022-08-16T04:51:36.602Z,97.56
2022-08-16T04:54:43.208Z,96.94
2022-08-16T04:57:45.816Z,96.40
2022-08-16T05:00:55.925Z,96.25
2022-08-16T05:04:01.315Z,96.46
2022-08-16T05:07:20.242Z,96.66
2022-08-16T05:10:35.048Z,96.37
2022-08-16T05:13:40.311Z,96.20
2022-08-16T05:16:45.498Z,96.33
2022-08-16T05:19:57.937Z,95.91
2022-08-16T05:23:09.997Z,95.67
2022-08-16T05:26:19.836Z,95.39
2022-08-16T05:29:22.956Z,95.40
2022-08-16T05:32:47.422Z,95.16
2022-08-16T05:35:55.578Z,95.06
2022-08-16T05:39:07.771Z,93.60
2022-08-16T05:42:11.168Z,93.15
2022-08-16T05:45:21.867Z,91.94
2022-08-16T05:48:27.953Z,91.76
2022-08-16T05:51:40.295Z,91.67
2022-08-16T05:54:47.496Z,91.47
2022-08-16T05:57:52.652Z,92.51
2022-08-16T06:00:56.277Z,92.47
2022-08-16T06:03:59.947Z,92.31
2022-08-16T06:07:25.191Z,92.25
2022-08-16T06:11:02.377Z,92.81
2022-08-16T06:14:13.449Z,92.75
2022-08-16T06:17:19.421Z,93.21
2022-08-16T06:20:35.639Z,93.29
2022-08-16T06:23:46.351Z,93.04
2022-08-16T06:26:57.990Z,93.61
2022-08-16T06:30:11.048Z,93.69
2022-08-16T06:33:22.064Z,93.27
2022-08-16T06:36:26.699Z,93.78
2022-08-16T06:40:05.185Z,93.97
2022-08-16T06:43:20.665Z,94.02
2022-08-16T06:46:39.592Z,93.07
2022-08-16T06:49:52.795Z,92.46
2022-08-16T06:53:01.133Z,92.43
2022-08-16T06:56:14.794Z,91.25
2022-08-16T06:59:52.186Z,90.79
2022-08-16T07:02:59.290Z,90.44
2022-08-16T07:06:05.587Z,89.94
2022-08-16T07:09:15.978Z,89.48
2022-08-16T07:12:20.830Z,89.99
2022-08-16T07:15:50.537Z,89.57
2022-08-16T07:19:01.551Z,89.68
2022-08-16T07:22:36.466Z,89.14
2022-08-16T07:25:30.186Z,88.69
2022-08-16T07:28:32.231Z,92.57
2022-08-16T07:31:37.527Z,93.34
2022-08-16T07:34:48.412Z,94.72
2022-08-16T07:37:52.411Z,94.89
2022-08-16T07:41:20.605Z,95.12
2022-08-16T07:44:27.911Z,94.75
2022-08-16T07:47:51.206Z,94.69
2022-08-16T07:50:55.577Z,94.09
2022-08-16T07:54:09.544Z,94.47
2022-08-16T07:57:14.931Z,94.35
2022-08-16T08:00:26.383Z,94.44
2022-08-16T08:03:36.157Z,94.49
2022-08-16T08:06:44.117Z,94.67
2022-08-16T08:09:50.065Z,95.48
2022-08-16T08:12:55.079Z,96.00
2022-08-16T08:16:03.165Z,96.12
2022-08-16T08:19:12.669Z,96.08
2022-08-16T08:22:18.907Z,93.47
2022-08-16T08:25:52.705Z,94.78
2022-08-16T08:28:54.214Z,95.73
2022-08-16T08:32:04.371Z,95.77
2022-08-16T08:35:27.055Z,96.39
2022-08-16T08:38:45.031Z,95.74
2022-08-16T08:41:50.401Z,96.27
2022-08-16T08:44:55.339Z,96.24
2022-08-16T08:47:58.415Z,96.22
2022-08-16T08:51:09.057Z,96.60
2022-08-16T08:54:20.562Z,96.75
2022-08-16T08:57:25.684Z,97.80
2022-08-16T09:01:07.530Z,97.98
2022-08-16T09:04:14.734Z,98.12
2022-08-16T09:07:22.136Z,98.14
2022-08-16T09:10:29.416Z,98.18
2022-08-16T09:13:35.938Z,98.73
2022-08-16T09:17:01.190Z,98.14
2022-08-16T09:20:05.654Z,98.07
2022-08-16T09:23:10.906Z,96.61
2022-08-16T09:26:44.650Z,96.60
2022-08-16T09:29:45.231Z,96.47
2022-08-16T09:32:51.145Z,96.69
2022-08-16T09:35:54.433Z,96.93
2022-08-16T09:38:59.962Z,96.59
2022-08-16T09:42:03.026Z,97.36
2022-08-16T09:45:11.696Z,96.60
2022-08-16T09:48:36.816Z,97.07
2022-08-16T09:51:41.241Z,97.06
2022-08-16T09:54:44.383Z,96.38
2022-08-16T09:57:53.147Z,97.10
2022-08-16T10:00:55.035Z,97.77
2022-08-16T10:04:02.620Z,98.09
2022-08-16T10:07:15.212Z,98.73
2022-08-16T10:10:30.935Z,99.04
2022-08-16T10:13:36.511Z,98.33
2022-08-16T10:16:40.099Z,98.89
2022-08-16T10:19:43.264Z,99.81
2022-08-16T10:22:45.335Z,100.00
2022-08-16T10:27:17.931Z,100.00
2022-08-16T10:29:09.130Z,100.00
2022-08-16T10:32:10.998Z,99.47
2022-08-16T10:35:12.807Z,99.97
2022-08-16T10:38:27.413Z,99.36
2022-08-16T10:41:29.781Z,99.26
2022-08-16T10:44:31.550Z,99.46
2022-08-16T10:47:40.370Z,99.80
2022-08-16T10:50:42.310Z,100.00
2022-08-16T10:53:45.957Z,99.14
2022-08-16T10:56:52.807Z,98.94
2022-08-16T10:59:59.034Z,99.95
2022-08-16T11:03:02.749Z,99.47
2022-08-16T11:06:09.542Z,99.54
2022-08-16T11:09:25.306Z,100.00
2022-08-16T11:12:30.527Z,100.00
2022-08-16T11:15:34.355Z,99.49
2022-08-16T11:19:02.822Z,100.00
2022-08-16T11:22:38.806Z,100.00
2022-08-16T11:32:07.711Z,98.80
2022-08-16T11:35:18.316Z,99.74
2022-08-16T11:38:51.526Z,98.72
2022-08-16T11:41:59.694Z,99.47
2022-08-16T11:45:01.642Z,100.00
2022-08-16T11:48:04.701Z,100.00
2022-08-16T11:51:06.704Z,100.00
2022-08-16T11:54:21.171Z,99.96
2022-08-16T11:57:24.075Z,99.83
2022-08-16T12:00:33.678Z,100.00
2022-08-16T12:03:48.645Z,100.00
2022-08-16T12:06:53.685Z,99.67
2022-08-16T12:09:56.403Z,99.29
2022-08-16T12:12:58.248Z,99.71
2022-08-16T12:16:09.279Z,100.00
2022-08-16T12:19:13.667Z,98.77
2022-08-16T12:22:19.258Z,98.75
2022-08-16T12:25:23.742Z,98.00
2022-08-16T12:28:55.161Z,96.95
2022-08-16T12:32:00.998Z,96.39
2022-08-16T12:35:22.678Z,94.99
2022-08-16T12:38:38.644Z,96.11
2022-08-16T12:41:46.479Z,94.25
2022-08-16T12:44:50.383Z,94.27
2022-08-16T12:48:32.617Z,93.53
2022-08-16T12:51:58.560Z,93.67
2022-08-16T12:54:58.115Z,93.35
2022-08-16T12:58:00.342Z,93.65
2022-08-16T13:01:02.713Z,92.80
2022-08-16T13:04:21.319Z,92.63
2022-08-16T13:07:27.138Z,93.37
2022-08-16T13:10:37.110Z,92.66
2022-08-16T13:13:40.038Z,93.00
2022-08-16T13:16:42.380Z,93.02
2022-08-16T13:23:11.734Z,92.38
2022-08-16T13:26:18.175Z,91.73
2022-08-16T13:29:19.984Z,91.20
2022-08-16T13:32:40.041Z,91.11
2022-08-16T13:35:44.091Z,92.39
2022-08-16T13:38:49.341Z,92.17
2022-08-16T13:41:53.930Z,92.22
2022-08-16T13:44:58.620Z,93.78
2022-08-16T13:48:06.405Z,94.09
2022-08-16T13:51:08.196Z,93.15
2022-08-16T13:54:10.581Z,91.70
2022-08-16T13:57:12.656Z,91.26
2022-08-16T14:00:19.521Z,92.34
2022-08-16T14:03:23.933Z,92.05
2022-08-16T14:06:26.070Z,92.42
2022-08-16T14:09:32.019Z,92.76
2022-08-16T14:12:35.169Z,93.70
2022-08-16T14:15:37.966Z,94.16
2022-08-16T14:18:43.757Z,94.84
2022-08-16T14:22:13.536Z,95.24
2022-08-16T14:25:11.741Z,94.50
2022-08-16T14:28:18.840Z,93.44
2022-08-16T14:31:27.778Z,92.60
2022-08-16T14:34:30.166Z,92.53
2022-08-16T14:37:32.929Z,91.42
2022-08-16T14:40:35.495Z,91.53
2022-08-16T14:43:37.572Z,91.69
2022-08-16T14:46:41.960Z,92.50
2022-08-16T14:49:44.191Z,93.19
2022-08-16T14:52:56.302Z,93.21
2022-08-16T14:55:59.035Z,93.07
2022-08-16T14:59:01.074Z,93.34
2022-08-16T15:02:05.164Z,92.55
2022-08-16T15:05:09.224Z,92.48
2022-08-16T15:08:11.429Z,92.79
2022-08-16T15:11:13.306Z,93.36
2022-08-16T15:14:15.059Z,92.86
2022-08-16T15:17:21.706Z,93.17
2022-08-16T15:20:29.489Z,94.01
2022-08-16T15:23:33.887Z,93.49
2022-08-16T15:26:45.075Z,94.43
2022-08-16T15:29:49.046Z,94.61
2022-08-16T15:33:01.839Z,95.54
2022-08-16T15:36:04.590Z,96.36
2022-08-16T15:39:30.431Z,96.82
2022-08-16T15:42:29.118Z,97.59
2022-08-16T15:45:55.500Z,96.57
2022-08-16T15:48:57.963Z,96.64
2022-08-16T15:52:01.414Z,95.31
2022-08-16T15:55:24.049Z,94.07
2022-08-16T15:58:35.600Z,92.03
2022-08-16T16:01:40.503Z,92.53
2022-08-16T16:04:42.239Z,93.42
2022-08-16T16:07:55.417Z,93.34
2022-08-16T16:11:01.481Z,93.39
2022-08-16T16:14:07.373Z,94.34
2022-08-16T16:17:13.415Z,94.33
2022-08-16T16:20:19.488Z,94.26
2022-08-16T16:23:32.330Z,94.17
2022-08-16T16:26:34.371Z,94.30
2022-08-16T16:29:40.151Z,93.92
2022-08-16T16:32:42.902Z,92.72
2022-08-16T16:35:46.893Z,92.43
2022-08-16T16:38:50.478Z,93.16
2022-08-16T16:41:52.858Z,93.28
2022-08-16T16:45:00.946Z,93.95
2022-08-16T16:48:12.039Z,93.99
2022-08-16T16:51:15.175Z,94.01
2022-08-16T16:54:27.522Z,93.42
2022-08-16T16:57:48.937Z,93.21
2022-08-16T17:00:56.344Z,92.78
2022-08-16T17:04:03.071Z,92.72
2022-08-16T17:07:15.310Z,93.59
2022-08-16T17:10:46.633Z,93.83
2022-08-16T17:13:38.762Z,93.89
2022-08-16T17:16:46.348Z,93.94
2022-08-16T17:19:49.811Z,93.97
2022-08-16T17:22:54.632Z,94.48
2022-08-16T17:25:56.507Z,94.41
2022-08-16T17:29:02.730Z,94.01
2022-08-16T17:32:33.925Z,94.48
2022-08-16T17:35:45.869Z,93.91
2022-08-16T17:38:57.671Z,92.86
2022-08-16T17:42:01.126Z,91.75
2022-08-16T17:45:03.853Z,91.49
2022-08-16T17:48:06.014Z,91.49
2022-08-16T17:51:07.779Z,91.68
2022-08-16T17:54:22.185Z,91.12
2022-08-16T17:57:31.201Z,91.40
2022-08-16T18:00:32.967Z,91.30
2022-08-16T18:04:03.100Z,91.39
2022-08-16T18:07:00.310Z,90.76
2022-08-16T18:10:02.264Z,90.43
2022-08-16T18:13:07.791Z,90.52
2022-08-16T18:16:10.229Z,89.59
2022-08-16T18:19:11.893Z,89.32
2022-08-16T18:22:24.783Z,89.11
2022-08-16T18:25:30.490Z,88.98
2022-08-16T18:28:34.766Z,88.80
2022-08-16T18:31:39.049Z,89.47
2022-08-16T18:34:40.977Z,90.04
2022-08-16T18:37:42.759Z,90.52
2022-08-16T18:40:46.178Z,91.19
2022-08-16T18:43:54.392Z,90.59
2022-08-16T18:47:10.106Z,91.02
2022-08-16T18:53:55.287Z,90.36
2022-08-16T18:56:58.193Z,90.58
2022-08-16T19:00:00.329Z,90.34
2022-08-16T19:03:37.431Z,90.24
2022-08-16T19:06:39.362Z,90.42
2022-08-16T19:09:41.258Z,90.78
2022-08-16T19:12:43.961Z,91.11
2022-08-16T19:15:47.703Z,91.70
2022-08-16T19:18:49.834Z,91.47
2022-08-16T19:21:51.803Z,92.50
2022-08-16T19:24:53.676Z,92.92
2022-08-16T19:28:01.008Z,92.07
2022-08-16T19:31:04.279Z,91.76
2022-08-16T19:34:06.160Z,92.00
2022-08-16T19:37:08.065Z,92.54
2022-08-16T19:40:36.676Z,92.35
2022-08-16T19:43:33.486Z,92.70
2022-08-16T19:46:35.917Z,92.23
2022-08-16T19:49:40.030Z,92.81
2022-08-16T19:52:42.665Z,92.75
2022-08-16T19:55:45.119Z,92.81
2022-08-16T19:59:16.232Z,93.37
2022-08-16T20:02:32.671Z,93.41
2022-08-16T20:05:38.067Z,93.23
2022-08-16T20:08:39.780Z,93.02
2022-08-16T20:11:41.505Z,93.53
2022-08-16T20:14:43.772Z,93.43
2022-08-16T20:17:46.364Z,93.84
2022-08-16T20:20:48.150Z,93.75
2022-08-16T20:23:49.881Z,94.41
2022-08-16T20:26:51.647Z,94.82
2022-08-16T20:29:53.516Z,95.82
2022-08-16T20:32:55.673Z,95.73
2022-08-16T20:35:57.423Z,95.92
2022-08-16T20:39:00.282Z,95.86
2022-08-16T20:42:02.041Z,95.44
2022-08-16T20:45:05.522Z,95.06
2022-08-16T20:48:07.342Z,95.17
2022-08-16T20:51:10.870Z,95.10
2022-08-16T20:54:12.594Z,94.77
2022-08-16T20:57:17.466Z,94.60
2022-08-16T21:00:20.150Z,94.97
2022-08-16T21:03:21.893Z,95.30
2022-08-16T21:06:24.276Z,95.22
2022-08-16T21:09:27.779Z,96.10
2022-08-16T21:12:34.707Z,96.43
2022-08-16T21:15:39.567Z,97.16
2022-08-16T21:18:41.242Z,97.69
2022-08-16T21:21:42.942Z,98.24
2022-08-16T21:24:46.453Z,98.92
2022-08-16T21:28:40.689Z,99.76
2022-08-16T21:31:15.142Z,99.61
2022-08-16T21:34:16.807Z,100.00
2022-08-16T21:37:18.985Z,99.38
2022-08-16T21:40:20.775Z,99.57
2022-08-16T21:43:27.654Z,99.39
2022-08-16T21:46:29.426Z,99.38
2022-08-16T21:49:31.128Z,99.72
2022-08-16T21:52:32.801Z,99.88
2022-08-16T21:55:35.831Z,100.00
2022-08-16T21:58:37.899Z,100.00
2022-08-16T22:01:41.390Z,100.00
2022-08-16T22:04:44.985Z,100.00
2022-08-16T22:07:46.663Z,100.00
2022-08-16T22:11:07.487Z,100.00
2022-08-16T22:14:10.238Z,100.00
2022-08-16T22:17:11.919Z,100.00
2022-08-16T22:20:13.584Z,100.00
2022-08-16T22:23:24.891Z,100.00
2022-08-16T22:26:32.320Z,100.00
2022-08-16T22:29:34.264Z,100.00
2022-08-16T22:32:42.000Z,100.00
2022-08-16T22:36:04.690Z,100.00
2022-08-16T22:39:08.798Z,100.00
2022-08-16T22:42:10.791Z,100.00
2022-08-16T22:45:12.797Z,100.00
2022-08-16T22:48:15.378Z,100.00
2022-08-16T22:51:18.215Z,100.00
2022-08-16T22:54:44.376Z,100.00
2022-08-16T22:57:41.658Z,100.00
2022-08-16T23:00:45.140Z,100.00
2022-08-16T23:03:47.024Z,100.00
2022-08-16T23:06:49.184Z,100.00
2022-08-16T23:09:50.979Z,100.00
2022-08-16T23:12:58.896Z,100.00
2022-08-16T23:16:11.176Z,100.00
2022-08-16T23:19:15.426Z,100.00
2022-08-16T23:22:17.157Z,100.00
2022-08-16T23:25:33.949Z,100.00
2022-08-16T23:28:35.885Z,100.00
2022-08-16T23:31:37.714Z,100.00
2022-08-16T23:34:40.417Z,100.00
2022-08-16T23:37:42.546Z,100.00
2022-08-16T23:40:44.967Z,100.00
2022-08-16T23:43:46.778Z,100.00
2022-08-16T23:46:49.388Z,100.00
2022-08-16T23:50:00.854Z,100.00
2022-08-16T23:53:06.480Z,100.00
2022-08-16T23:56:15.387Z,100.00
2022-08-16T23:59:17.166Z,100.00
